Time;durP1;ratioP1;P1;durP2;ratioP2;P2;SDS_P1;SDS_P2;PMS_P1;PMS_P2;Temp;Humidity;BMP_temperature;BMP_pressure;BME280_temperature;BME280_humidity;BME280_pressure;Samples;Min_cycle;Max_cycle;Signal;HPM_P1;HPM_P2
2023/12/30 00:01:47;;;;;;;13.20;2.40;;;9.30;99.90;;;;;;5098319;28;20224;-79
2023/12/30 00:04:12;;;;;;;10.07;2.20;;;9.20;99.90;;;;;;5101962;28;20538;-79
2023/12/30 00:06:38;;;;;;;10.67;1.87;;;9.30;99.90;;;;;;5100891;28;20270;-79
2023/12/30 00:09:04;;;;;;;11.53;2.23;;;9.20;99.90;;;;;;5104709;28;20249;-79
2023/12/30 00:11:30;;;;;;;11.97;2.70;;;9.20;99.90;;;;;;5106159;28;20609;-78
2023/12/30 00:13:55;;;;;;;12.43;2.27;;;9.20;99.90;;;;;;5097202;28;20194;-79
2023/12/30 00:16:21;;;;;;;6.70;1.63;;;9.20;99.90;;;;;;5099085;28;20171;-79
2023/12/30 00:18:47;;;;;;;10.80;2.37;;;9.20;99.90;;;;;;5098445;28;20303;-79
2023/12/30 00:21:17;;;;;;;14.80;2.73;;;9.20;99.90;;;;;;5098286;28;20684;-79
2023/12/30 00:23:43;;;;;;;12.47;2.53;;;9.20;99.90;;;;;;5098565;28;20197;-80
2023/12/30 00:26:17;;;;;;;11.60;2.63;;;9.20;99.90;;;;;;5097811;28;20174;-79
2023/12/30 00:28:43;;;;;;;14.63;2.73;;;9.20;99.90;;;;;;5098949;28;20159;-79
2023/12/30 00:31:18;;;;;;;14.30;2.50;;;9.10;99.90;;;;;;5098603;28;20180;-79
2023/12/30 00:33:44;;;;;;;14.87;3.40;;;9.10;99.90;;;;;;5098623;28;20202;-79
2023/12/30 00:36:09;;;;;;;12.67;2.67;;;9.20;99.90;;;;;;5097761;28;20231;-80
2023/12/30 00:38:35;;;;;;;14.33;2.70;;;9.10;99.90;;;;;;5097158;28;20198;-79
2023/12/30 00:41:01;;;;;;;11.93;2.33;;;9.20;99.90;;;;;;5097196;28;20167;-80
2023/12/30 00:43:26;;;;;;;13.00;2.37;;;9.20;99.90;;;;;;5097018;28;20205;-79
2023/12/30 00:45:52;;;;;;;15.27;3.07;;;9.20;99.90;;;;;;5097901;28;20631;-79
2023/12/30 00:48:17;;;;;;;14.70;2.87;;;9.10;99.90;;;;;;5097653;28;20220;-80
2023/12/30 00:50:43;;;;;;;13.50;2.50;;;9.10;99.90;;;;;;5095613;28;20261;-79
2023/12/30 00:53:08;;;;;;;11.23;2.30;;;9.00;99.90;;;;;;5097994;28;20588;-79
2023/12/30 00:55:33;;;;;;;14.77;2.33;;;9.20;99.90;;;;;;5097209;28;20170;-79
2023/12/30 00:57:59;;;;;;;8.00;1.73;;;9.00;99.90;;;;;;5096065;28;20198;-79
2023/12/30 01:00:25;;;;;;;13.10;2.60;;;9.00;99.90;;;;;;5097718;28;20200;-78
2023/12/30 01:02:50;;;;;;;12.50;2.80;;;9.00;99.90;;;;;;5097169;28;20737;-79
2023/12/30 01:05:15;;;;;;;13.93;2.57;;;8.90;99.90;;;;;;5097170;28;20276;-79
2023/12/30 01:07:41;;;;;;;9.97;2.33;;;8.90;99.90;;;;;;5095891;28;20170;-79
2023/12/30 01:10:07;;;;;;;12.20;2.67;;;8.90;99.90;;;;;;5096919;28;20197;-79
2023/12/30 01:12:33;;;;;;;11.23;2.60;;;8.70;99.90;;;;;;5097663;28;20186;-79
2023/12/30 01:14:58;;;;;;;8.27;2.20;;;8.80;99.90;;;;;;5096042;28;20242;-79
2023/12/30 01:17:24;;;;;;;12.50;2.60;;;8.80;99.90;;;;;;5095512;28;20706;-79
2023/12/30 01:19:49;;;;;;;10.67;2.47;;;8.80;99.90;;;;;;5095953;28;20313;-80
2023/12/30 01:22:15;;;;;;;16.63;2.43;;;8.80;99.90;;;;;;5095769;28;20194;-79
2023/12/30 01:24:40;;;;;;;14.07;3.50;;;8.80;99.90;;;;;;5095790;28;20182;-79
2023/12/30 01:27:06;;;;;;;9.80;2.37;;;8.80;99.90;;;;;;5095951;28;20178;-79
2023/12/30 01:29:31;;;;;;;12.00;2.30;;;8.70;99.90;;;;;;5097738;28;20525;-79
2023/12/30 01:31:57;;;;;;;14.77;2.40;;;8.80;99.90;;;;;;5095446;28;20194;-79
2023/12/30 01:34:23;;;;;;;17.53;3.10;;;8.80;99.90;;;;;;5096796;28;20295;-79
2023/12/30 01:36:48;;;;;;;14.27;2.70;;;8.80;99.90;;;;;;5095292;28;20178;-79
2023/12/30 01:39:13;;;;;;;11.17;2.70;;;8.80;99.90;;;;;;5096813;28;20162;-79
2023/12/30 01:41:41;;;;;;;11.33;2.57;;;8.80;99.90;;;;;;5095485;28;20596;-79
2023/12/30 01:44:07;;;;;;;11.77;2.20;;;8.90;99.90;;;;;;5097737;28;20214;-79
2023/12/30 01:46:33;;;;;;;11.60;2.20;;;8.80;99.90;;;;;;5097450;28;20629;-79
2023/12/30 01:48:58;;;;;;;12.57;2.80;;;8.80;99.90;;;;;;5096216;28;20174;-79
2023/12/30 01:51:24;;;;;;;9.63;2.27;;;8.70;99.90;;;;;;5095669;28;20170;-79
2023/12/30 01:53:50;;;;;;;16.47;3.30;;;8.70;99.90;;;;;;5096537;28;20266;-80
2023/12/30 01:56:17;;;;;;;13.93;2.43;;;8.70;99.90;;;;;;5095716;28;20546;-79
2023/12/30 01:58:43;;;;;;;15.73;2.73;;;8.70;99.90;;;;;;5095539;28;20202;-80
2023/12/30 02:01:10;;;;;;;11.67;2.47;;;8.70;99.90;;;;;;5096131;28;20205;-79
2023/12/30 02:03:36;;;;;;;10.97;2.60;;;8.70;99.90;;;;;;5096803;28;20244;-78
2023/12/30 02:06:02;;;;;;;11.17;2.80;;;8.70;99.90;;;;;;5097048;28;20567;-79
2023/12/30 02:08:27;;;;;;;9.50;2.17;;;8.70;99.90;;;;;;5097119;28;20170;-79
2023/12/30 02:10:53;;;;;;;13.40;2.40;;;8.60;99.90;;;;;;5096863;28;20200;-79
2023/12/30 02:13:18;;;;;;;14.03;2.77;;;8.70;99.90;;;;;;5096934;28;20250;-79
2023/12/30 02:19:11;;;;;;;11.47;2.30;;;8.60;99.90;;;;;;5098044;28;20197;-79
2023/12/30 02:21:37;;;;;;;14.10;2.73;;;8.60;99.90;;;;;;5097655;28;20175;-79
2023/12/30 02:24:02;;;;;;;13.67;2.93;;;8.60;99.90;;;;;;5105399;28;20297;-80
2023/12/30 02:26:30;;;;;;;12.50;2.20;;;8.60;99.90;;;;;;5103819;28;20232;-79
2023/12/30 02:28:56;;;;;;;12.90;2.33;;;8.50;99.90;;;;;;5097563;28;20173;-79
2023/12/30 02:31:21;;;;;;;17.07;2.70;;;8.60;99.90;;;;;;5095822;28;20663;-79
2023/12/30 02:33:47;;;;;;;8.53;2.13;;;8.60;99.90;;;;;;5095229;28;20280;-79
2023/12/30 02:36:12;;;;;;;14.67;2.63;;;8.60;99.90;;;;;;5094341;28;20178;-79
2023/12/30 02:38:38;;;;;;;17.67;2.30;;;8.60;99.90;;;;;;5096391;28;20194;-79
2023/12/30 02:41:03;;;;;;;16.70;2.67;;;8.50;99.90;;;;;;5096601;28;20178;-79
2023/12/30 02:43:36;;;;;;;17.07;2.60;;;8.50;99.90;;;;;;5095570;28;20661;-78
2023/12/30 02:46:02;;;;;;;13.03;2.57;;;8.50;99.90;;;;;;5096028;28;20159;-78
2023/12/30 02:48:27;;;;;;;18.97;3.23;;;8.50;99.90;;;;;;5095774;28;20192;-79
2023/12/30 02:50:53;;;;;;;13.43;2.40;;;8.50;99.90;;;;;;5095589;28;20178;-79
2023/12/30 02:53:18;;;;;;;11.23;2.03;;;8.40;99.90;;;;;;5093735;28;20193;-78
2023/12/30 02:55:44;;;;;;;11.50;2.87;;;8.50;99.90;;;;;;5095979;28;20240;-78
2023/12/30 02:58:09;;;;;;;15.37;2.57;;;8.50;99.90;;;;;;5093903;28;20202;-79
2023/12/30 03:00:35;;;;;;;15.47;3.07;;;8.50;99.90;;;;;;5095803;28;20544;-79
2023/12/30 03:03:00;;;;;;;15.07;2.90;;;8.50;99.90;;;;;;5094125;28;20212;-79
2023/12/30 03:05:27;;;;;;;11.10;2.23;;;8.50;99.90;;;;;;5096619;28;20528;-78
2023/12/30 03:07:53;;;;;;;13.13;3.00;;;8.50;99.90;;;;;;5099966;28;20173;-79
2023/12/30 03:10:18;;;;;;;12.07;2.80;;;8.50;99.90;;;;;;5098142;28;20170;-79
2023/12/30 03:12:44;;;;;;;14.47;2.90;;;8.50;99.90;;;;;;5099723;28;20186;-79
2023/12/30 03:15:09;;;;;;;11.67;2.10;;;8.50;99.90;;;;;;5097826;28;20192;-78
2023/12/30 03:17:35;;;;;;;15.27;2.83;;;8.50;99.90;;;;;;5099531;28;20198;-78
2023/12/30 03:20:03;;;;;;;13.13;2.87;;;8.40;99.90;;;;;;5097955;28;20201;-79
2023/12/30 03:22:29;;;;;;;14.77;2.87;;;8.40;99.90;;;;;;5099660;28;20190;-79
2023/12/30 03:24:55;;;;;;;12.43;2.43;;;8.50;99.90;;;;;;5098215;28;20167;-79
2023/12/30 03:27:20;;;;;;;12.80;2.30;;;8.50;99.90;;;;;;5098135;28;20250;-79
2023/12/30 03:29:46;;;;;;;15.20;2.57;;;8.50;99.90;;;;;;5099092;28;20178;-78
2023/12/30 03:32:12;;;;;;;11.87;3.23;;;8.50;99.90;;;;;;5099293;28;20580;-79
2023/12/30 03:34:37;;;;;;;15.70;2.73;;;8.50;99.90;;;;;;5098617;28;20166;-78
2023/12/30 03:37:03;;;;;;;11.57;2.03;;;8.40;99.90;;;;;;5082640;28;20325;-78
2023/12/30 03:39:28;;;;;;;11.40;2.70;;;8.40;99.90;;;;;;5079244;28;20223;-78
2023/12/30 03:41:54;;;;;;;14.40;2.77;;;8.40;99.90;;;;;;5077441;28;20258;-79
2023/12/30 03:44:19;;;;;;;15.40;2.47;;;8.30;99.90;;;;;;5079754;28;20175;-77
2023/12/30 03:46:45;;;;;;;13.70;2.50;;;8.30;99.90;;;;;;5079438;28;20176;-79
2023/12/30 03:49:10;;;;;;;9.90;2.20;;;8.30;99.90;;;;;;5079427;28;20171;-78
2023/12/30 03:51:36;;;;;;;13.20;2.80;;;8.30;99.90;;;;;;5106476;28;20174;-77
2023/12/30 03:54:01;;;;;;;14.50;2.90;;;8.30;99.90;;;;;;5119710;28;20165;-79
2023/12/30 03:56:27;;;;;;;11.20;2.17;;;8.30;99.90;;;;;;5120886;28;20165;-79
2023/12/30 03:58:53;;;;;;;13.87;2.60;;;8.30;99.90;;;;;;5119030;28;20204;-78
2023/12/30 04:01:18;;;;;;;21.83;3.07;;;8.20;99.90;;;;;;5117786;28;20181;-79
2023/12/30 04:03:44;;;;;;;13.40;2.87;;;8.20;99.90;;;;;;5116718;28;20284;-79
2023/12/30 04:06:18;;;;;;;11.47;2.40;;;8.20;99.90;;;;;;5116523;28;20181;-78
2023/12/30 04:08:43;;;;;;;16.70;2.60;;;8.20;99.90;;;;;;5117705;28;20632;-78
2023/12/30 04:11:09;;;;;;;17.47;2.50;;;8.30;99.90;;;;;;5116919;28;20208;-78
2023/12/30 04:13:35;;;;;;;13.47;2.30;;;8.30;99.90;;;;;;5117142;28;20200;-79
2023/12/30 04:16:00;;;;;;;12.63;2.50;;;8.30;99.90;;;;;;5117096;28;20176;-79
2023/12/30 04:18:26;;;;;;;12.13;3.00;;;8.30;99.90;;;;;;5117960;28;20581;-78
2023/12/30 04:20:51;;;;;;;14.53;2.67;;;8.20;99.90;;;;;;5118196;28;20201;-79
2023/12/30 04:23:17;;;;;;;14.50;2.67;;;8.20;99.90;;;;;;5118194;28;20540;-79
2023/12/30 04:25:42;;;;;;;8.83;2.23;;;8.20;99.90;;;;;;5117120;28;20519;-78
2023/12/30 04:28:08;;;;;;;13.63;2.47;;;8.30;99.90;;;;;;5118490;28;20184;-78
2023/12/30 04:30:33;;;;;;;10.77;2.10;;;8.30;99.90;;;;;;5116616;28;20181;-78
2023/12/30 04:32:59;;;;;;;15.97;2.47;;;8.30;99.90;;;;;;5118940;28;20626;-79
2023/12/30 04:35:24;;;;;;;11.37;2.70;;;8.30;99.90;;;;;;5117681;28;20197;-78
2023/12/30 04:37:50;;;;;;;11.50;2.30;;;8.30;99.90;;;;;;5121970;28;20201;-79
2023/12/30 04:40:15;;;;;;;11.17;2.47;;;8.30;99.90;;;;;;5120849;28;20219;-78
2023/12/30 04:42:41;;;;;;;16.70;2.77;;;8.30;99.90;;;;;;5118350;28;20506;-78
2023/12/30 04:45:12;;;;;;;11.73;2.53;;;8.30;99.90;;;;;;5118201;28;20169;-77
2023/12/30 04:47:38;;;;;;;12.63;2.57;;;8.30;99.90;;;;;;5118400;28;20467;-79
2023/12/30 04:50:04;;;;;;;9.17;2.10;;;8.30;99.90;;;;;;5116934;28;20715;-78
2023/12/30 04:52:29;;;;;;;13.80;3.10;;;8.20;99.90;;;;;;5118311;28;20205;-79
2023/12/30 04:54:55;;;;;;;11.10;2.33;;;8.20;99.90;;;;;;5117702;28;20203;-79
2023/12/30 04:57:20;;;;;;;14.43;2.73;;;8.20;99.90;;;;;;5116500;28;20243;-79
2023/12/30 04:59:46;;;;;;;12.37;2.50;;;8.20;99.90;;;;;;5118078;28;20185;-79
2023/12/30 05:02:11;;;;;;;17.13;2.77;;;8.20;99.90;;;;;;5115993;28;20190;-79
2023/12/30 05:04:37;;;;;;;16.80;3.17;;;8.20;99.90;;;;;;5116345;28;20177;-79
2023/12/30 05:07:04;;;;;;;18.50;2.63;;;8.20;99.90;;;;;;5117581;28;20173;-76
2023/12/30 05:09:29;;;;;;;8.77;2.13;;;8.20;99.90;;;;;;5116567;28;20184;-79
2023/12/30 05:11:55;;;;;;;15.97;2.20;;;8.20;99.90;;;;;;5116463;28;20189;-78
2023/12/30 05:14:21;;;;;;;13.80;2.30;;;8.10;99.90;;;;;;5117500;28;20250;-78
2023/12/30 05:16:46;;;;;;;14.37;2.87;;;8.10;99.90;;;;;;5118668;28;20169;-78
2023/12/30 05:19:12;;;;;;;12.73;2.57;;;8.00;99.90;;;;;;5117775;28;20698;-79
2023/12/30 05:21:38;;;;;;;12.30;2.67;;;8.00;99.90;;;;;;5118458;28;20173;-77
2023/12/30 05:24:05;;;;;;;13.23;2.60;;;8.00;99.90;;;;;;5117046;28;20256;-79
2023/12/30 05:26:30;;;;;;;18.03;2.77;;;8.00;99.90;;;;;;5118305;28;20165;-78
2023/12/30 05:28:57;;;;;;;16.90;2.20;;;8.00;99.90;;;;;;5117902;28;20250;-79
2023/12/30 05:31:23;;;;;;;15.43;3.50;;;8.00;99.90;;;;;;5117739;28;20170;-78
2023/12/30 05:33:49;;;;;;;18.00;2.70;;;7.90;99.90;;;;;;5117054;28;20212;-78
2023/12/30 05:36:14;;;;;;;13.97;2.17;;;7.90;99.90;;;;;;5119145;28;20192;-79
2023/12/30 05:38:40;;;;;;;15.13;3.03;;;7.90;99.90;;;;;;5118466;28;20340;-79
2023/12/30 05:41:05;;;;;;;13.37;2.50;;;7.90;99.90;;;;;;5117625;28;20180;-78
2023/12/30 05:43:31;;;;;;;13.50;2.50;;;7.90;99.90;;;;;;5118554;28;20217;-79
2023/12/30 05:45:56;;;;;;;16.10;2.47;;;7.90;99.90;;;;;;5119050;28;20261;-79
2023/12/30 05:48:22;;;;;;;14.13;2.20;;;7.90;99.90;;;;;;5117639;28;20169;-78
2023/12/30 05:50:47;;;;;;;17.67;3.17;;;7.90;99.90;;;;;;5115303;28;20179;-77
2023/12/30 05:53:13;;;;;;;14.37;2.23;;;7.90;99.90;;;;;;5117523;28;20273;-79
2023/12/30 05:55:38;;;;;;;14.40;2.80;;;7.90;99.90;;;;;;5115382;28;20238;-79
2023/12/30 05:58:04;;;;;;;15.43;2.87;;;7.90;99.90;;;;;;5116628;28;20200;-79
2023/12/30 06:00:29;;;;;;;13.50;2.93;;;8.00;99.90;;;;;;5115588;28;20597;-79
2023/12/30 06:02:55;;;;;;;11.33;2.40;;;7.90;99.90;;;;;;5116414;28;20704;-79
2023/12/30 06:05:20;;;;;;;13.70;2.80;;;8.00;99.90;;;;;;5115651;28;20207;-78
2023/12/30 06:07:46;;;;;;;14.00;3.00;;;8.00;99.90;;;;;;5116554;28;20177;-78
2023/12/30 06:10:12;;;;;;;13.57;2.70;;;8.00;99.90;;;;;;5116521;28;20667;-78
2023/12/30 06:12:38;;;;;;;14.40;2.67;;;8.00;99.90;;;;;;5115117;28;20194;-78
2023/12/30 06:15:04;;;;;;;19.53;3.30;;;8.00;99.90;;;;;;5116323;28;20245;-78
2023/12/30 06:17:30;;;;;;;19.30;3.37;;;8.00;99.90;;;;;;5116043;28;20271;-78
2023/12/30 06:19:56;;;;;;;17.77;2.90;;;7.90;99.90;;;;;;5116588;28;20227;-78
2023/12/30 06:22:21;;;;;;;15.57;3.50;;;7.90;99.90;;;;;;5116202;28;20656;-78
2023/12/30 06:24:47;;;;;;;16.70;2.97;;;7.80;99.90;;;;;;5115020;28;20181;-78
2023/12/30 06:27:12;;;;;;;10.77;2.50;;;7.80;99.90;;;;;;5116671;28;20219;-79
2023/12/30 06:29:38;;;;;;;12.87;2.83;;;7.80;99.90;;;;;;5116209;28;20174;-79
2023/12/30 06:32:04;;;;;;;11.77;2.47;;;7.80;99.90;;;;;;5115260;28;20619;-78
2023/12/30 06:34:30;;;;;;;20.47;3.17;;;7.80;99.90;;;;;;5116574;28;20165;-78
2023/12/30 06:36:56;;;;;;;17.47;3.00;;;7.80;99.90;;;;;;5115044;28;20173;-78
2023/12/30 06:39:21;;;;;;;17.83;3.47;;;7.80;99.90;;;;;;5117274;28;20166;-79
2023/12/30 06:41:47;;;;;;;14.30;2.73;;;7.90;99.90;;;;;;5123285;28;20309;-78
2023/12/30 06:44:12;;;;;;;13.20;2.80;;;7.80;99.90;;;;;;5124962;28;20157;-79
2023/12/30 06:46:38;;;;;;;16.60;3.07;;;7.80;99.90;;;;;;5127343;28;20170;-78
2023/12/30 06:49:04;;;;;;;14.20;2.83;;;7.80;99.90;;;;;;5124809;28;20273;-79
2023/12/30 06:51:29;;;;;;;15.83;2.37;;;7.80;99.90;;;;;;5122653;28;20169;-78
2023/12/30 06:53:55;;;;;;;12.20;2.60;;;7.80;99.90;;;;;;5121089;28;20200;-78
2023/12/30 06:56:20;;;;;;;15.17;2.93;;;7.80;99.90;;;;;;5122391;28;20507;-79
2023/12/30 06:58:46;;;;;;;19.40;2.83;;;7.80;99.90;;;;;;5121129;28;20213;-79
2023/12/30 07:01:12;;;;;;;17.60;3.17;;;7.80;99.90;;;;;;5121269;28;20184;-79
2023/12/30 07:03:38;;;;;;;13.97;2.83;;;7.90;99.90;;;;;;5122805;28;20280;-78
2023/12/30 07:06:04;;;;;;;11.47;2.63;;;7.90;99.90;;;;;;5124292;28;20759;-78
2023/12/30 07:08:29;;;;;;;19.43;2.93;;;7.90;99.90;;;;;;5122915;28;20556;-79
2023/12/30 07:10:55;;;;;;;12.87;2.97;;;7.90;99.90;;;;;;5125076;28;20227;-79
2023/12/30 07:13:21;;;;;;;16.83;2.67;;;7.90;99.90;;;;;;5125006;28;20189;-79
2023/12/30 07:15:47;;;;;;;10.30;2.67;;;7.90;99.90;;;;;;5123281;28;20174;-78
2023/12/30 07:18:13;;;;;;;16.50;2.67;;;7.90;99.90;;;;;;5125396;27;20227;-78
2023/12/30 07:20:38;;;;;;;14.20;3.57;;;7.80;99.90;;;;;;5125142;27;20166;-79
2023/12/30 07:23:05;;;;;;;10.90;2.47;;;7.80;99.90;;;;;;5123716;28;20189;-79
2023/12/30 07:25:31;;;;;;;13.77;2.70;;;7.80;99.90;;;;;;5121786;28;20172;-79
2023/12/30 07:27:56;;;;;;;12.80;2.40;;;7.80;99.90;;;;;;5122792;27;20173;-79
2023/12/30 07:30:22;;;;;;;14.40;2.70;;;7.80;99.90;;;;;;5121661;28;20173;-78
2023/12/30 07:32:47;;;;;;;24.17;2.90;;;7.80;99.90;;;;;;5121991;28;20232;-79
2023/12/30 07:35:13;;;;;;;14.53;2.50;;;7.70;99.90;;;;;;5123069;28;20178;-79
2023/12/30 07:37:39;;;;;;;15.07;3.33;;;7.70;99.90;;;;;;5121837;28;20243;-79
2023/12/30 07:40:06;;;;;;;13.73;2.80;;;7.70;99.90;;;;;;5122005;28;20180;-79
2023/12/30 07:42:32;;;;;;;11.33;2.30;;;7.70;99.90;;;;;;5122561;27;20182;-79
2023/12/30 07:44:57;;;;;;;11.27;2.43;;;7.70;99.90;;;;;;5122102;27;20590;-79
2023/12/30 07:47:25;;;;;;;16.13;3.10;;;7.70;99.90;;;;;;5121894;28;20178;-79
2023/12/30 07:49:50;;;;;;;13.90;2.73;;;7.70;99.90;;;;;;5120929;28;20594;-79
2023/12/30 07:52:16;;;;;;;15.10;2.63;;;7.70;99.90;;;;;;5117682;28;20193;-78
2023/12/30 07:54:41;;;;;;;16.83;2.80;;;7.70;99.90;;;;;;5118968;28;20173;-79
2023/12/30 07:57:07;;;;;;;17.13;2.73;;;7.70;99.90;;;;;;5119097;28;20198;-79
2023/12/30 07:59:33;;;;;;;22.03;2.87;;;7.80;99.90;;;;;;5117206;28;20165;-79
2023/12/30 08:01:58;;;;;;;13.80;2.80;;;7.80;99.90;;;;;;5117480;28;20197;-79
2023/12/30 08:04:24;;;;;;;9.27;2.07;;;7.80;99.90;;;;;;5117809;28;20266;-78
2023/12/30 08:06:50;;;;;;;13.53;2.90;;;7.80;99.90;;;;;;5117373;28;20181;-79
2023/12/30 08:09:15;;;;;;;14.33;2.30;;;7.80;99.90;;;;;;5118893;28;20194;-78
2023/12/30 08:11:41;;;;;;;15.00;2.60;;;7.80;99.90;;;;;;5117454;28;20189;-79
2023/12/30 08:14:07;;;;;;;17.13;2.57;;;7.80;99.90;;;;;;5117948;28;20169;-79
2023/12/30 08:16:35;;;;;;;14.53;2.67;;;7.90;99.90;;;;;;5117122;28;20242;-78
2023/12/30 08:19:02;;;;;;;8.93;2.07;;;7.90;99.90;;;;;;5118571;28;20189;-78
2023/12/30 08:21:27;;;;;;;11.60;2.03;;;7.90;99.90;;;;;;5117908;28;20608;-78
2023/12/30 08:23:54;;;;;;;15.33;2.30;;;7.90;99.90;;;;;;5116626;28;20190;-76
2023/12/30 08:26:20;;;;;;;10.07;2.47;;;7.90;99.90;;;;;;5118124;28;20173;-78
2023/12/30 08:28:46;;;;;;;17.77;2.87;;;8.00;99.90;;;;;;5117096;28;20176;-79
2023/12/30 08:31:12;;;;;;;13.73;2.63;;;8.00;99.90;;;;;;5116671;28;20557;-78
2023/12/30 08:33:38;;;;;;;17.63;2.33;;;8.00;99.90;;;;;;5117987;28;20232;-79
2023/12/30 08:36:03;;;;;;;18.27;3.03;;;8.00;99.90;;;;;;5117943;28;20177;-78
2023/12/30 08:38:31;;;;;;;17.67;2.47;;;8.10;99.90;;;;;;5118942;28;20284;-78
2023/12/30 08:40:57;;;;;;;22.60;3.70;;;8.10;99.90;;;;;;5125539;28;20183;-78
2023/12/30 08:43:23;;;;;;;18.63;3.00;;;8.10;99.90;;;;;;5120099;28;20260;-76
2023/12/30 08:45:48;;;;;;;13.87;2.60;;;8.10;99.90;;;;;;5117390;28;20645;-77
2023/12/30 08:48:14;;;;;;;15.10;2.83;;;8.10;99.90;;;;;;5122364;28;20709;-78
2023/12/30 08:50:40;;;;;;;15.47;3.20;;;8.10;99.90;;;;;;5117928;28;20600;-77
2023/12/30 08:53:06;;;;;;;11.77;2.63;;;8.20;99.90;;;;;;5118946;28;20212;-77
2023/12/30 08:55:31;;;;;;;13.03;2.87;;;8.20;99.90;;;;;;5126661;28;20178;-78
2023/12/30 08:57:57;;;;;;;13.70;2.20;;;8.20;99.90;;;;;;5128152;28;20201;-76
2023/12/30 09:00:22;;;;;;;10.60;2.67;;;8.20;99.90;;;;;;5118996;28;20180;-77
2023/12/30 09:02:48;;;;;;;6.63;2.17;;;8.20;99.90;;;;;;5116235;28;20742;-77
2023/12/30 09:05:19;;;;;;;15.83;3.37;;;8.20;99.90;;;;;;5116335;28;20193;-77
2023/12/30 09:07:48;;;;;;;16.43;4.03;;;8.20;99.90;;;;;;5115826;28;20215;-77
2023/12/30 09:10:13;;;;;;;13.33;2.87;;;8.20;99.90;;;;;;5117819;28;20200;-77
2023/12/30 09:12:39;;;;;;;12.37;2.60;;;8.20;99.90;;;;;;5117699;28;20202;-76
2023/12/30 09:15:05;;;;;;;16.27;3.27;;;8.20;99.90;;;;;;5117323;28;20174;-77
2023/12/30 09:17:31;;;;;;;13.77;2.77;;;8.20;99.90;;;;;;5115322;28;20204;-77
2023/12/30 09:19:56;;;;;;;9.47;2.50;;;8.20;99.90;;;;;;5122499;28;20177;-78
2023/12/30 09:22:22;;;;;;;15.37;2.80;;;8.20;99.90;;;;;;5131633;28;20185;-78
2023/12/30 09:24:48;;;;;;;13.83;3.23;;;8.20;99.90;;;;;;5126291;28;20165;-77
2023/12/30 09:27:14;;;;;;;11.10;2.70;;;8.20;99.90;;;;;;5104250;28;20179;-77
2023/12/30 09:29:40;;;;;;;10.03;2.57;;;8.30;99.90;;;;;;5101681;28;20174;-77
2023/12/30 09:32:06;;;;;;;14.90;2.97;;;8.30;99.90;;;;;;5099970;28;20611;-77
2023/12/30 09:34:31;;;;;;;26.77;4.23;;;8.30;99.90;;;;;;5101722;28;20246;-77
2023/12/30 09:36:57;;;;;;;16.73;3.77;;;8.30;99.90;;;;;;5101394;28;20193;-77
2023/12/30 09:39:22;;;;;;;10.50;2.67;;;8.40;99.90;;;;;;5103408;28;20181;-77
2023/12/30 09:41:48;;;;;;;15.70;3.37;;;8.40;99.90;;;;;;5111394;28;20272;-77
2023/12/30 09:44:14;;;;;;;14.90;3.13;;;8.40;99.90;;;;;;5108505;28;20165;-78
2023/12/30 09:46:40;;;;;;;18.23;3.03;;;8.40;99.90;;;;;;5109567;28;20186;-77
2023/12/30 09:49:06;;;;;;;18.67;3.10;;;8.40;99.90;;;;;;5108970;28;20186;-77
2023/12/30 09:51:33;;;;;;;14.90;3.30;;;8.50;99.90;;;;;;5111472;28;20158;-77
2023/12/30 09:53:59;;;;;;;16.27;3.23;;;8.50;99.90;;;;;;5110818;28;20201;-78
2023/12/30 09:56:25;;;;;;;13.90;2.97;;;8.60;99.90;;;;;;5107101;28;20186;-77
2023/12/30 09:58:53;;;;;;;17.73;3.70;;;8.60;99.90;;;;;;5105775;28;20259;-77
2023/12/30 10:01:19;;;;;;;17.50;3.03;;;8.60;99.90;;;;;;5099366;28;20181;-77
2023/12/30 10:03:45;;;;;;;18.93;3.63;;;8.60;99.90;;;;;;5098865;28;20282;-77
2023/12/30 10:06:14;;;;;;;20.13;3.43;;;8.70;99.90;;;;;;5097662;28;20231;-77
2023/12/30 10:08:43;;;;;;;19.17;3.10;;;8.70;99.90;;;;;;5101502;28;20641;-77
2023/12/30 10:11:10;;;;;;;16.00;3.27;;;8.80;99.90;;;;;;5098816;28;20170;-77
2023/12/30 10:13:37;;;;;;;16.07;3.20;;;8.80;99.90;;;;;;5098161;28;20297;-77
2023/12/30 10:16:05;;;;;;;12.07;2.80;;;8.80;99.90;;;;;;5098546;28;20193;-77
2023/12/30 10:18:37;;;;;;;13.90;2.83;;;8.80;99.90;;;;;;5095690;28;20202;-76
2023/12/30 10:21:07;;;;;;;17.03;3.13;;;8.80;99.90;;;;;;5100868;28;20170;-77
2023/12/30 10:23:34;;;;;;;10.73;2.90;;;8.80;99.90;;;;;;5092226;28;20197;-77
2023/12/30 10:26:02;;;;;;;14.20;3.60;;;8.90;99.90;;;;;;5090658;28;20201;-77
2023/12/30 10:28:28;;;;;;;24.33;3.93;;;8.90;99.90;;;;;;5091084;28;20642;-77
2023/12/30 10:31:05;;;;;;;13.70;3.30;;;8.90;99.90;;;;;;5090969;28;20178;-77
2023/12/30 10:33:32;;;;;;;12.37;2.83;;;8.90;99.90;;;;;;5090624;28;20217;-77
2023/12/30 10:35:58;;;;;;;16.60;3.00;;;8.90;99.90;;;;;;5090541;28;20231;-77
2023/12/30 10:38:25;;;;;;;15.07;3.23;;;9.00;99.90;;;;;;5093683;28;20268;-76
2023/12/30 10:40:53;;;;;;;17.50;3.77;;;9.00;99.90;;;;;;5093226;28;20177;-77
2023/12/30 10:43:19;;;;;;;11.97;2.90;;;9.10;99.90;;;;;;5093130;28;20201;-77
2023/12/30 10:46:02;;;;;;;14.63;2.97;;;9.10;99.90;;;;;;5092093;28;20261;-77
2023/12/30 10:48:51;;;;;;;14.23;3.33;;;9.20;99.90;;;;;;5073803;28;20661;-77
2023/12/30 10:51:25;;;;;;;18.43;2.90;;;9.20;99.90;;;;;;5072298;28;20171;-77
2023/12/30 10:54:00;;;;;;;14.00;2.90;;;9.20;99.90;;;;;;5079041;28;20609;-77
2023/12/30 10:56:29;;;;;;;19.03;3.23;;;9.30;99.90;;;;;;5085620;28;20181;-77
2023/12/30 10:58:59;;;;;;;13.90;2.80;;;9.30;99.90;;;;;;5098081;28;20220;-77
2023/12/30 11:01:25;;;;;;;14.33;3.67;;;9.30;99.90;;;;;;5097942;28;20163;-77
2023/12/30 11:03:52;;;;;;;19.10;2.93;;;9.30;99.90;;;;;;5097451;28;20196;-77
2023/12/30 11:06:26;;;;;;;10.97;2.63;;;9.40;99.90;;;;;;5095370;28;20178;-77
2023/12/30 11:09:14;;;;;;;15.90;3.10;;;9.40;99.90;;;;;;5094346;28;20280;-77
2023/12/30 11:11:53;;;;;;;15.57;2.77;;;9.40;99.90;;;;;;5098334;28;20338;-77
2023/12/30 11:14:22;;;;;;;15.73;3.50;;;9.40;99.90;;;;;;5096275;28;20185;-78
2023/12/30 11:16:51;;;;;;;14.67;3.17;;;9.50;99.90;;;;;;5097820;28;20596;-77
2023/12/30 11:19:30;;;;;;;14.23;2.70;;;9.40;99.90;;;;;;5096794;28;20221;-77
2023/12/30 11:22:05;;;;;;;14.20;2.87;;;9.50;99.90;;;;;;5099201;28;20699;-77
2023/12/30 11:24:31;;;;;;;13.83;3.30;;;9.50;99.90;;;;;;5098328;28;20213;-77
2023/12/30 11:26:57;;;;;;;11.53;3.20;;;9.60;99.90;;;;;;5101144;28;20206;-77
2023/12/30 11:29:27;;;;;;;17.90;2.70;;;9.60;99.90;;;;;;5101566;28;20193;-77
2023/12/30 11:31:54;;;;;;;12.70;2.97;;;9.60;99.90;;;;;;5103891;28;20185;-77
2023/12/30 11:34:20;;;;;;;13.00;3.00;;;9.60;99.90;;;;;;5102193;28;20166;-77
2023/12/30 11:36:48;;;;;;;16.10;3.93;;;9.70;99.90;;;;;;5102741;28;20197;-78
2023/12/30 11:39:22;;;;;;;11.47;3.30;;;9.70;99.90;;;;;;5102703;28;20386;-77
2023/12/30 11:41:48;;;;;;;19.30;3.43;;;9.70;99.90;;;;;;5102498;28;20160;-77
2023/12/30 11:44:14;;;;;;;13.17;2.67;;;9.70;99.90;;;;;;5097197;28;20235;-77
2023/12/30 11:46:41;;;;;;;10.80;2.47;;;9.70;99.90;;;;;;5098640;28;20174;-78
2023/12/30 11:49:07;;;;;;;16.00;3.03;;;9.80;99.90;;;;;;5099709;28;20177;-77
2023/12/30 11:51:33;;;;;;;6.80;2.33;;;9.80;99.90;;;;;;5098737;28;20215;-77
2023/12/30 11:54:03;;;;;;;18.33;3.27;;;9.80;99.90;;;;;;5098779;28;20261;-77
2023/12/30 11:56:29;;;;;;;15.13;2.40;;;9.80;99.90;;;;;;5097507;28;20170;-77
2023/12/30 11:58:55;;;;;;;12.33;2.73;;;9.90;99.90;;;;;;5098817;28;20546;-77
2023/12/30 12:01:21;;;;;;;12.80;2.70;;;9.90;99.90;;;;;;5098451;28;20211;-77
2023/12/30 12:03:47;;;;;;;13.40;2.37;;;9.90;99.90;;;;;;5098649;28;20194;-77
2023/12/30 12:06:13;;;;;;;18.37;2.87;;;9.90;99.90;;;;;;5097441;28;20182;-77
2023/12/30 12:08:39;;;;;;;12.33;3.20;;;9.90;99.90;;;;;;5096250;28;20231;-77
2023/12/30 12:11:06;;;;;;;9.07;2.60;;;10.00;99.90;;;;;;5094746;28;20174;-77
2023/12/30 12:13:32;;;;;;;19.80;3.23;;;10.00;99.90;;;;;;5095833;28;20198;-77
2023/12/30 12:15:58;;;;;;;12.87;2.83;;;10.00;99.90;;;;;;5094354;28;20189;-77
2023/12/30 12:18:24;;;;;;;15.77;2.70;;;10.00;99.90;;;;;;5094062;28;20698;-78
2023/12/30 12:20:53;;;;;;;14.53;3.30;;;10.10;99.90;;;;;;5094105;28;20550;-77
2023/12/30 12:23:24;;;;;;;12.33;2.90;;;10.20;99.90;;;;;;5095931;28;20197;-77
2023/12/30 12:25:49;;;;;;;9.53;2.47;;;10.20;99.90;;;;;;5095311;28;20165;-78
2023/12/30 12:28:17;;;;;;;21.20;3.50;;;10.30;99.90;;;;;;5097030;28;20170;-79
2023/12/30 12:30:44;;;;;;;14.47;3.20;;;10.30;99.90;;;;;;5097451;28;20261;-79
2023/12/30 12:33:12;;;;;;;8.87;2.20;;;10.40;99.90;;;;;;5096862;28;20210;-78
2023/12/30 12:35:38;;;;;;;13.03;2.53;;;10.50;99.90;;;;;;5096053;28;20182;-77
2023/12/30 12:38:04;;;;;;;16.50;2.87;;;10.50;99.90;;;;;;5095247;28;20205;-77
2023/12/30 12:40:29;;;;;;;10.03;2.67;;;10.50;99.90;;;;;;5094749;28;20294;-78
2023/12/30 12:42:55;;;;;;;11.30;2.30;;;10.40;99.90;;;;;;5096096;28;20190;-78
2023/12/30 12:45:21;;;;;;;11.17;2.30;;;10.40;99.90;;;;;;5095054;28;20170;-79
2023/12/30 12:47:46;;;;;;;10.20;2.67;;;10.40;99.90;;;;;;5095859;28;20258;-78